Time;durP1;ratioP1;P1;durP2;ratioP2;P2;SDS_P1;SDS_P2;PMS_P1;PMS_P2;Temp;Humidity;BMP_temperature;BMP_pressure;BME280_temperature;BME280_humidity;BME280_pressure;Samples;Min_cycle;Max_cycle;Signal;HPM_P1;HPM_P2
2023/12/03 00:00:26;;;;;;;10.50;2.22;;;;;;;15.60;41.93;94037.75;5069217;28;20031;-74
2023/12/03 00:02:52;;;;;;;8.55;1.95;;;;;;;15.56;41.86;94032.41;5086026;28;20024;-73
2023/12/03 00:05:17;;;;;;;11.52;1.92;;;;;;;15.63;41.73;94072.78;5086848;28;20563;-74
2023/12/03 00:07:43;;;;;;;7.63;2.13;;;;;;;15.56;41.85;94048.28;5087075;28;20050;-74
2023/12/03 00:10:08;;;;;;;10.45;2.50;;;;;;;15.55;42.02;94047.53;5086530;28;20028;-74
2023/12/03 00:12:35;;;;;;;11.98;2.38;;;;;;;15.62;41.69;94041.56;5085716;28;20024;-74
2023/12/03 00:15:01;;;;;;;11.90;1.92;;;;;;;15.63;41.86;94045.84;5066384;28;20033;-74
2023/12/03 00:17:26;;;;;;;11.88;1.85;;;;;;;15.64;41.78;94041.06;5067189;28;20027;-74
2023/12/03 00:19:51;;;;;;;11.52;1.77;;;;;;;15.66;41.72;94049.66;5075589;28;20324;-74
2023/12/03 00:22:17;;;;;;;13.75;2.22;;;;;;;15.61;41.89;94069.72;5083289;28;20024;-74
2023/12/03 00:24:42;;;;;;;13.85;2.45;;;;;;;15.62;41.83;94065.72;5084513;28;20188;-74
2023/12/03 00:27:08;;;;;;;9.80;2.00;;;;;;;15.64;41.75;94066.00;5069410;28;20086;-75
2023/12/03 00:29:33;;;;;;;13.32;1.70;;;;;;;15.64;41.79;94079.84;5066674;28;20495;-75
2023/12/03 00:31:59;;;;;;;9.40;1.88;;;;;;;15.68;41.87;94060.25;5066132;28;20024;-75
2023/12/03 00:34:24;;;;;;;9.38;2.35;;;;;;;15.70;41.61;94063.28;5066224;28;20502;-75
2023/12/03 00:36:49;;;;;;;9.95;2.28;;;;;;;15.72;41.62;94064.31;5066296;28;20052;-75
2023/12/03 00:39:15;;;;;;;8.85;1.80;;;;;;;15.72;41.47;94060.78;5066233;28;20035;-75
2023/12/03 00:41:41;;;;;;;15.95;2.67;;;;;;;15.70;41.34;94069.56;5065028;28;20479;-75
2023/12/03 00:44:06;;;;;;;13.93;2.17;;;;;;;15.76;41.35;94072.41;5065754;28;20036;-74
2023/12/03 00:46:31;;;;;;;11.63;2.67;;;;;;;15.73;41.63;94082.47;5066045;28;20520;-75
2023/12/03 00:48:57;;;;;;;14.27;1.88;;;;;;;15.76;41.48;94075.16;5080766;28;20035;-74
2023/12/03 00:51:22;;;;;;;7.75;1.90;;;;;;;15.78;41.60;94081.00;5075250;28;20039;-75
2023/12/03 00:53:47;;;;;;;5.82;1.67;;;;;;;15.78;41.47;94103.16;5084542;28;20032;-75
2023/12/03 00:56:13;;;;;;;13.35;2.45;;;;;;;15.77;41.49;94087.75;5086340;28;20020;-75
2023/12/03 00:58:38;;;;;;;11.90;2.05;;;;;;;15.85;41.58;94094.41;5086175;28;20031;-75
2023/12/03 01:01:04;;;;;;;8.45;1.98;;;;;;;15.81;41.54;94091.84;5085448;28;20028;-75
2023/12/03 01:03:30;;;;;;;14.98;1.95;;;;;;;15.78;41.69;94092.84;5085146;28;20039;-75
2023/12/03 01:05:56;;;;;;;11.90;1.58;;;;;;;15.88;41.63;94105.25;5084472;28;20378;-75
2023/12/03 01:08:21;;;;;;;17.35;2.60;;;;;;;15.85;41.80;94099.94;5084902;28;20028;-75
2023/12/03 01:10:46;;;;;;;12.20;1.92;;;;;;;15.88;42.10;94098.94;5085406;28;20028;-75
2023/12/03 01:13:12;;;;;;;9.98;2.53;;;;;;;15.92;41.56;94108.56;5085860;28;20236;-74
2023/12/03 01:15:37;;;;;;;12.20;2.05;;;;;;;15.99;41.57;94103.81;5065349;28;20040;-74
2023/12/03 01:18:03;;;;;;;13.60;3.15;;;;;;;15.93;41.76;94104.53;5075317;28;20027;-74
2023/12/03 01:20:28;;;;;;;10.60;1.70;;;;;;;16.03;41.67;94098.81;5084758;28;20024;-74
2023/12/03 01:22:54;;;;;;;7.22;1.42;;;;;;;16.02;41.85;94116.72;5074186;28;20387;-74
2023/12/03 01:25:19;;;;;;;12.23;2.83;;;;;;;15.94;42.09;94127.47;5084266;28;20048;-75
2023/12/03 01:27:45;;;;;;;14.50;2.50;;;;;;;15.98;41.98;94110.63;5084234;28;20470;-74
2023/12/03 01:30:10;;;;;;;9.38;1.88;;;;;;;15.98;41.90;94125.22;5084118;28;20024;-74
2023/12/03 01:32:36;;;;;;;20.15;2.38;;;;;;;15.94;42.25;94105.28;5084135;28;20447;-73
2023/12/03 01:35:01;;;;;;;11.20;1.98;;;;;;;15.92;42.04;94122.41;5085611;28;20050;-74
2023/12/03 01:37:27;;;;;;;12.70;2.78;;;;;;;15.94;42.10;94113.59;5083863;28;20020;-74
2023/12/03 01:39:52;;;;;;;11.10;2.05;;;;;;;15.96;42.07;94108.34;5085882;28;20062;-74
2023/12/03 01:42:17;;;;;;;12.05;2.63;;;;;;;15.95;42.05;94114.38;5083912;28;20116;-74
2023/12/03 01:44:43;;;;;;;8.35;1.80;;;;;;;15.89;42.45;94114.34;5084042;28;20028;-74
2023/12/03 01:47:09;;;;;;;13.32;2.67;;;;;;;15.83;42.49;94105.97;5081790;28;20474;-74
2023/12/03 01:49:34;;;;;;;15.60;2.60;;;;;;;15.80;42.71;94112.50;5083903;28;20028;-74
2023/12/03 01:52:00;;;;;;;8.30;1.67;;;;;;;15.68;42.91;94104.56;5085807;28;20020;-74
2023/12/03 01:54:27;;;;;;;13.77;2.70;;;;;;;15.77;42.72;94107.94;5083418;28;20581;-74
2023/12/03 01:56:53;;;;;;;8.57;2.30;;;;;;;15.84;42.71;94106.72;5076833;28;20032;-74
2023/12/03 01:59:19;;;;;;;13.27;2.15;;;;;;;15.83;42.61;94105.22;5084898;28;20032;-74
2023/12/03 02:01:44;;;;;;;6.60;1.80;;;;;;;15.82;43.06;94107.22;5083430;28;20024;-74
2023/12/03 02:04:10;;;;;;;12.30;2.47;;;;;;;15.73;43.16;94104.63;5064301;28;20058;-74
2023/12/03 02:06:35;;;;;;;22.10;2.65;;;;;;;15.72;43.06;94105.88;5065147;28;20103;-74
2023/12/03 02:09:01;;;;;;;11.05;2.60;;;;;;;15.70;43.30;94102.06;5065637;28;20028;-74
2023/12/03 02:11:26;;;;;;;10.00;2.00;;;;;;;15.62;43.58;94085.09;5064566;28;20488;-74
2023/12/03 02:13:52;;;;;;;14.35;2.08;;;;;;;15.76;43.32;94089.00;5064030;28;20119;-74
2023/12/03 02:16:17;;;;;;;12.70;1.98;;;;;;;15.76;43.34;94089.00;5067266;28;20028;-75
2023/12/03 02:18:43;;;;;;;11.75;1.88;;;;;;;15.79;43.19;94074.94;5085271;28;20028;-74
2023/12/03 02:21:09;;;;;;;11.93;2.53;;;;;;;15.80;43.23;94078.47;5085068;28;20032;-74
2023/12/03 02:23:34;;;;;;;13.27;2.50;;;;;;;15.80;43.05;94079.22;5084596;28;20032;-74
2023/12/03 02:25:59;;;;;;;14.27;2.13;;;;;;;15.73;43.36;94078.94;5083987;28;20016;-74
2023/12/03 02:28:25;;;;;;;9.60;1.83;;;;;;;15.73;43.24;94079.69;5084812;28;20432;-75
2023/12/03 02:30:50;;;;;;;10.68;1.80;;;;;;;15.72;43.41;94078.19;5074023;28;20060;-74
2023/12/03 02:33:16;;;;;;;16.92;2.13;;;;;;;15.73;43.33;94090.78;5064449;28;20052;-74
2023/12/03 02:35:41;;;;;;;11.13;2.10;;;;;;;15.63;43.74;94084.63;5063838;28;20036;-74
2023/12/03 02:38:07;;;;;;;10.40;1.98;;;;;;;15.63;43.57;94081.09;5064905;28;20115;-73
2023/12/03 02:40:33;;;;;;;20.50;2.47;;;;;;;15.70;43.72;94093.75;5064450;28;20032;-74
2023/12/03 02:42:59;;;;;;;13.13;2.25;;;;;;;15.64;43.55;94096.47;5063784;28;20104;-75
2023/12/03 02:45:24;;;;;;;12.57;2.38;;;;;;;15.72;43.63;94099.59;5062980;28;20104;-74
2023/12/03 02:47:50;;;;;;;12.95;2.53;;;;;;;15.64;43.82;94097.22;5066195;28;20029;-74
2023/12/03 02:50:15;;;;;;;16.10;1.88;;;;;;;15.65;43.86;94101.53;5084845;28;20035;-74
2023/12/03 02:52:41;;;;;;;12.32;1.98;;;;;;;15.62;43.91;94096.97;5088843;28;20399;-74
2023/12/03 02:55:07;;;;;;;14.68;2.22;;;;;;;15.59;44.22;94103.44;5088153;28;20019;-74
2023/12/03 02:57:32;;;;;;;16.15;2.33;;;;;;;15.64;43.98;94115.88;5069506;28;20035;-74
2023/12/03 02:59:58;;;;;;;9.27;1.75;;;;;;;15.57;44.06;94111.50;5088601;28;20020;-74
2023/12/03 03:02:23;;;;;;;9.60;2.00;;;;;;;15.55;44.23;94116.00;5069851;28;20113;-74
2023/12/03 03:04:49;;;;;;;12.75;2.10;;;;;;;15.48;44.34;94108.13;5068302;28;20429;-75
2023/12/03 03:07:14;;;;;;;12.50;1.98;;;;;;;15.52;44.65;94109.44;5067657;28;20028;-74
2023/12/03 03:09:39;;;;;;;14.52;2.65;;;;;;;15.58;44.48;94109.47;5068466;28;20021;-74
2023/12/03 03:12:05;;;;;;;9.75;2.60;;;;;;;15.40;44.83;94127.19;5081324;28;20100;-75
2023/12/03 03:14:31;;;;;;;12.07;1.80;;;;;;;15.37;45.14;94131.69;5086809;28;20059;-75
2023/12/03 03:16:56;;;;;;;9.80;2.05;;;;;;;15.43;44.87;94123.44;5087878;28;20071;-74
2023/12/03 03:19:22;;;;;;;20.10;3.25;;;;;;;15.48;44.85;94131.03;5087835;28;20111;-74
2023/12/03 03:21:47;;;;;;;17.90;2.60;;;;;;;15.46;44.82;94136.31;5086793;28;20476;-75
2023/12/03 03:24:12;;;;;;;14.93;2.40;;;;;;;15.46;45.03;94143.88;5086730;28;20030;-75
2023/12/03 03:26:39;;;;;;;8.45;2.53;;;;;;;15.53;44.91;94148.97;5067233;28;20059;-76
2023/12/03 03:29:06;;;;;;;9.15;2.38;;;;;;;15.54;44.91;94156.81;5049420;28;20028;-74
2023/12/03 03:31:31;;;;;;;18.05;3.13;;;;;;;15.62;44.86;94169.00;5066484;28;20047;-75
2023/12/03 03:33:56;;;;;;;13.45;2.67;;;;;;;15.64;44.89;94174.03;5067355;28;20593;-74
2023/12/03 03:36:22;;;;;;;13.23;1.80;;;;;;;15.54;44.58;94175.41;5065757;28;20031;-74
2023/12/03 03:38:47;;;;;;;10.15;1.98;;;;;;;15.40;44.58;94177.03;5067556;28;20029;-74
2023/12/03 03:41:12;;;;;;;11.20;2.45;;;;;;;15.32;44.72;94182.25;5048699;28;20024;-73
2023/12/03 03:43:38;;;;;;;15.93;2.40;;;;;;;15.28;44.69;94180.94;5072765;28;20406;-75
2023/12/03 03:46:03;;;;;;;12.30;2.58;;;;;;;15.27;44.46;94190.50;5080520;28;20059;-74
2023/12/03 03:48:29;;;;;;;8.02;1.92;;;;;;;15.16;44.69;94174.50;5084232;28;20024;-74
2023/12/03 03:50:55;;;;;;;16.27;3.42;;;;;;;15.05;44.94;94179.91;5087074;28;20055;-74
2023/12/03 03:53:20;;;;;;;13.02;2.47;;;;;;;14.93;45.17;94187.28;5087220;28;20054;-74
2023/12/03 03:55:46;;;;;;;9.27;2.47;;;;;;;14.87;45.38;94192.75;5087487;28;20036;-73
2023/12/03 03:58:11;;;;;;;13.18;2.60;;;;;;;14.81;45.57;94196.69;5086789;28;20035;-73
2023/12/03 04:00:37;;;;;;;11.05;2.03;;;;;;;14.73;45.62;94215.69;5086081;28;20035;-74
2023/12/03 04:03:03;;;;;;;12.30;2.30;;;;;;;14.71;45.61;94215.41;5079160;28;20020;-74
2023/12/03 04:05:29;;;;;;;13.00;2.38;;;;;;;14.63;46.01;94213.53;5065715;28;20028;-74
2023/12/03 04:07:54;;;;;;;14.00;3.30;;;;;;;14.63;46.06;94208.00;5066505;28;20025;-73
2023/12/03 04:10:20;;;;;;;8.57;2.08;;;;;;;14.57;46.03;94205.16;5077169;28;20036;-74
2023/12/03 04:12:47;;;;;;;14.95;2.65;;;;;;;14.58;46.11;94223.28;5086945;28;20264;-74
2023/12/03 04:15:13;;;;;;;11.43;2.65;;;;;;;14.60;46.01;94223.53;5070170;28;20029;-74
2023/12/03 04:17:38;;;;;;;9.23;2.35;;;;;;;14.51;46.20;94210.59;5065398;28;20036;-74
2023/12/03 04:20:04;;;;;;;10.57;2.38;;;;;;;14.54;46.29;94237.28;5066121;28;20078;-74
2023/12/03 04:22:30;;;;;;;8.20;2.65;;;;;;;14.51;46.29;94246.56;5065105;28;20025;-75
2023/12/03 04:24:55;;;;;;;14.40;2.30;;;;;;;14.50;46.35;94253.31;5064889;28;20023;-74
2023/12/03 04:27:20;;;;;;;9.48;2.17;;;;;;;14.49;46.43;94251.78;5084611;28;20111;-76
2023/12/03 04:29:46;;;;;;;11.52;2.05;;;;;;;14.35;46.56;94253.31;5078468;28;20056;-75
2023/12/03 04:32:11;;;;;;;8.90;2.10;;;;;;;14.39;46.46;94266.16;5066763;28;20479;-75
2023/12/03 04:34:40;;;;;;;14.27;2.17;;;;;;;14.38;47.53;94268.16;5065977;28;20167;-75
2023/12/03 04:37:06;;;;;;;8.07;2.22;;;;;;;14.40;47.62;94267.72;5066198;28;20028;-75
2023/12/03 04:39:31;;;;;;;11.15;2.25;;;;;;;14.38;47.72;94284.75;5064813;28;20025;-75
2023/12/03 04:41:56;;;;;;;11.82;2.40;;;;;;;14.35;48.25;94289.25;5064621;28;20111;-75
2023/12/03 04:44:22;;;;;;;7.15;2.30;;;;;;;14.22;49.87;94290.75;5066371;28;20103;-75
2023/12/03 04:46:48;;;;;;;17.08;2.35;;;;;;;14.13;51.41;94301.91;5064706;28;20028;-75
2023/12/03 04:49:13;;;;;;;6.72;1.70;;;;;;;13.97;51.59;94303.88;5071723;28;20060;-75
2023/12/03 04:51:39;;;;;;;8.73;1.80;;;;;;;13.98;51.19;94315.69;5086300;28;20035;-76
2023/12/03 04:54:04;;;;;;;13.98;2.40;;;;;;;13.93;51.25;94308.84;5086128;28;20409;-75
2023/12/03 04:56:30;;;;;;;11.23;2.25;;;;;;;13.88;50.23;94301.22;5085966;28;20028;-75
2023/12/03 04:58:55;;;;;;;13.80;2.33;;;;;;;13.92;49.68;94320.38;5085909;28;20034;-75
2023/12/03 05:01:21;;;;;;;9.60;2.30;;;;;;;13.81;50.10;94320.91;5085043;28;20082;-75
2023/12/03 05:03:46;;;;;;;10.45;2.17;;;;;;;13.76;50.37;94330.63;5086049;28;20027;-74
2023/12/03 05:06:12;;;;;;;17.50;2.42;;;;;;;13.75;50.38;94329.09;5086696;28;20016;-75
2023/12/03 05:08:37;;;;;;;12.85;2.40;;;;;;;13.84;50.50;94328.25;5082623;28;20036;-75
2023/12/03 05:11:04;;;;;;;9.45;2.60;;;;;;;13.88;50.88;94336.34;5085760;28;20028;-75
2023/12/03 05:13:33;;;;;;;8.82;2.15;;;;;;;13.81;51.56;94345.78;5084133;28;20016;-76
2023/12/03 05:16:01;;;;;;;9.25;1.88;;;;;;;13.75;52.35;94358.72;5064697;28;20032;-75
2023/12/03 05:18:26;;;;;;;11.63;2.22;;;;;;;13.69;52.40;94352.31;5064356;28;20017;-75
2023/12/03 05:20:51;;;;;;;11.05;2.72;;;;;;;13.66;52.27;94344.97;5065407;28;20450;-75
2023/12/03 05:23:17;;;;;;;8.02;2.00;;;;;;;13.71;52.30;94356.13;5065679;28;20038;-75
2023/12/03 05:25:42;;;;;;;9.63;2.42;;;;;;;13.79;52.27;94346.25;5063829;28;20032;-75
2023/12/03 05:28:08;;;;;;;11.75;2.53;;;;;;;13.69;52.32;94330.22;5065008;28;20043;-75
2023/12/03 05:30:33;;;;;;;11.02;2.08;;;;;;;13.69;52.65;94341.25;5063932;28;20031;-76
2023/12/03 05:32:58;;;;;;;8.45;2.47;;;;;;;13.69;52.97;94353.06;5065440;28;20082;-74
2023/12/03 05:35:24;;;;;;;6.75;1.92;;;;;;;13.64;53.25;94341.91;5077277;28;20463;-74
2023/12/03 05:37:50;;;;;;;11.95;2.70;;;;;;;13.66;53.38;94350.50;5083658;28;20081;-75
2023/12/03 05:40:15;;;;;;;11.98;3.35;;;;;;;13.63;53.69;94345.91;5084553;28;20073;-75
2023/12/03 05:42:41;;;;;;;10.80;2.70;;;;;;;13.64;53.56;94342.66;5073470;28;20028;-76
2023/12/03 05:45:07;;;;;;;9.55;2.58;;;;;;;13.56;53.71;94338.75;5071911;28;20035;-74
2023/12/03 05:47:33;;;;;;;9.00;2.72;;;;;;;13.64;53.87;94344.66;5071663;28;20031;-76
2023/12/03 05:50:00;;;;;;;10.82;1.95;;;;;;;13.63;54.01;94354.94;5063821;28;20410;-77
2023/12/03 05:52:25;;;;;;;8.73;2.38;;;;;;;13.57;54.12;94365.13;5065191;28;20605;-76
2023/12/03 05:54:51;;;;;;;8.85;1.92;;;;;;;13.59;54.15;94356.34;5065108;28;20589;-76
2023/12/03 05:57:16;;;;;;;9.95;2.03;;;;;;;13.53;54.27;94370.84;5064015;28;20040;-76
2023/12/03 05:59:41;;;;;;;8.80;3.35;;;;;;;13.50;54.39;94385.56;5063593;28;20039;-76
2023/12/03 06:02:07;;;;;;;6.65;2.22;;;;;;;13.46;54.40;94386.97;5068219;28;20111;-76
2023/12/03 06:04:32;;;;;;;10.52;3.22;;;;;;;13.43;54.51;94390.69;5084924;28;20020;-75
2023/12/03 06:06:58;;;;;;;15.18;5.18;;;;;;;13.46;54.78;94392.50;5084517;28;20501;-75
2023/12/03 06:09:23;;;;;;;16.48;4.68;;;;;;;13.41;55.07;94393.88;5071914;28;20036;-76
2023/12/03 06:11:48;;;;;;;10.98;3.90;;;;;;;13.41;55.26;94396.66;5066260;28;20517;-76
2023/12/03 06:14:14;;;;;;;12.55;3.42;;;;;;;13.37;55.31;94395.31;5065386;28;20586;-76
2023/12/03 06:16:39;;;;;;;6.13;3.13;;;;;;;13.38;55.52;94394.84;5071838;28;20032;-74
2023/12/03 06:19:04;;;;;;;15.15;4.10;;;;;;;13.43;55.93;94415.53;5080760;28;20032;-76
2023/12/03 06:21:30;;;;;;;11.07;4.53;;;;;;;13.34;56.16;94410.81;5084363;28;20024;-75
2023/12/03 06:23:56;;;;;;;15.77;5.57;;;;;;;13.36;56.19;94413.09;5086832;28;20558;-75
2023/12/03 06:26:21;;;;;;;12.77;4.57;;;;;;;13.38;56.23;94424.44;5086672;28;20031;-75
2023/12/03 06:28:46;;;;;;;13.50;5.55;;;;;;;13.32;56.18;94420.78;5087868;28;20028;-75
2023/12/03 06:31:12;;;;;;;16.70;4.25;;;;;;;13.36;55.67;94419.41;5088944;28;20028;-74
2023/12/03 06:33:38;;;;;;;11.52;4.15;;;;;;;13.34;55.84;94438.41;5078449;28;20051;-75
2023/12/03 06:36:04;;;;;;;11.25;4.25;;;;;;;13.31;55.75;94439.34;5068871;28;20024;-75
2023/12/03 06:38:29;;;;;;;13.98;3.80;;;;;;;13.29;55.84;94434.28;5068199;28;20032;-75
2023/12/03 06:40:55;;;;;;;12.05;3.85;;;;;;;13.29;55.76;94439.81;5069169;28;20133;-75
2023/12/03 06:43:20;;;;;;;12.32;3.60;;;;;;;13.31;56.46;94442.13;5066782;28;20063;-76
2023/12/03 06:45:45;;;;;;;10.95;3.22;;;;;;;13.36;56.56;94449.78;5074181;28;20020;-75
2023/12/03 06:48:11;;;;;;;10.52;2.90;;;;;;;13.37;56.75;94458.81;5088701;28;20020;-75
2023/12/03 06:50:36;;;;;;;10.13;2.70;;;;;;;13.42;56.54;94464.47;5088428;28;20115;-75
2023/12/03 06:53:02;;;;;;;9.10;3.08;;;;;;;13.39;56.34;94459.88;5089182;28;20027;-75
2023/12/03 06:55:28;;;;;;;6.03;2.70;;;;;;;13.47;57.00;94477.59;5087954;28;20157;-75
2023/12/03 06:57:53;;;;;;;9.27;2.28;;;;;;;13.45;57.18;94480.09;5087491;28;20050;-75
2023/12/03 07:00:19;;;;;;;9.35;2.47;;;;;;;13.39;57.30;94472.91;5088033;28;20543;-73
2023/12/03 07:02:45;;;;;;;7.50;2.60;;;;;;;13.41;57.95;94468.44;5087510;28;20048;-76
2023/12/03 07:05:10;;;;;;;10.57;3.05;;;;;;;13.44;58.41;94484.09;5073505;28;20029;-75
2023/12/03 07:07:36;;;;;;;12.70;2.83;;;;;;;13.36;58.51;94482.91;5068248;28;20107;-75
2023/12/03 07:10:02;;;;;;;6.80;2.72;;;;;;;13.36;58.74;94496.69;5068150;28;20039;-75
2023/12/03 07:12:28;;;;;;;9.45;3.25;;;;;;;13.35;58.65;94500.66;5066201;28;20074;-75
2023/12/03 07:14:53;;;;;;;11.85;3.00;;;;;;;13.42;58.77;94505.88;5068252;28;20041;-75
2023/12/03 07:17:19;;;;;;;10.30;2.78;;;;;;;13.50;58.59;94501.53;5075074;28;20528;-74
2023/12/03 07:19:45;;;;;;;10.23;2.97;;;;;;;13.49;58.22;94491.72;5085937;28;20020;-74
2023/12/03 07:22:11;;;;;;;8.73;2.55;;;;;;;13.49;58.77;94497.25;5086614;28;20131;-75
2023/12/03 07:24:37;;;;;;;6.82;2.88;;;;;;;13.49;58.95;94511.06;5066348;28;20100;-74
2023/12/03 07:27:03;;;;;;;6.72;2.92;;;;;;;13.47;59.18;94512.75;5067561;28;20056;-73
2023/12/03 07:29:28;;;;;;;6.60;2.50;;;;;;;13.46;58.82;94517.50;5049286;28;20109;-73
2023/12/03 07:31:54;;;;;;;9.68;2.67;;;;;;;13.51;58.45;94524.41;5067685;28;20422;-74
2023/12/03 07:34:19;;;;;;;7.80;3.72;;;;;;;13.41;59.19;94531.94;5065032;28;20044;-74
2023/12/03 07:36:45;;;;;;;13.38;3.30;;;;;;;13.27;59.41;94521.56;5074188;28;20031;-74
2023/12/03 07:39:10;;;;;;;11.95;3.85;;;;;;;13.23;59.84;94523.72;5085864;28;20020;-74
2023/12/03 07:41:36;;;;;;;10.07;3.58;;;;;;;13.10;60.05;94532.16;5083810;28;20858;-76
2023/12/03 07:44:02;;;;;;;8.90;3.70;;;;;;;13.10;59.72;94543.19;5074043;28;20028;-74
2023/12/03 07:46:27;;;;;;;10.80;3.90;;;;;;;13.07;59.73;94546.09;5077886;28;20425;-75
2023/12/03 07:48:53;;;;;;;7.97;3.88;;;;;;;12.95;59.80;94562.34;5067547;28;20025;-75
2023/12/03 07:51:18;;;;;;;11.35;4.30;;;;;;;12.86;60.17;94564.38;5065547;28;20021;-74
2023/12/03 07:53:44;;;;;;;10.30;4.85;;;;;;;12.75;60.40;94575.88;5065795;28;20467;-74
2023/12/03 07:56:09;;;;;;;11.68;4.85;;;;;;;12.59;60.62;94578.91;5066812;28;20507;-74
2023/12/03 07:58:36;;;;;;;9.23;5.63;;;;;;;12.43;60.83;94575.22;5086176;28;20081;-74
2023/12/03 08:01:02;;;;;;;9.38;5.18;;;;;;;12.32;60.86;94596.94;5068852;28;20449;-75
2023/12/03 08:03:27;;;;;;;9.02;5.35;;;;;;;12.15;60.84;94607.47;5084456;28;20047;-75
2023/12/03 08:05:53;;;;;;;10.75;5.55;;;;;;;12.05;60.89;94611.44;5086995;28;20028;-74
2023/12/03 08:08:18;;;;;;;9.68;5.45;;;;;;;11.88;60.81;94610.91;5079303;28;20482;-74
2023/12/03 08:10:43;;;;;;;9.43;5.80;;;;;;;11.70;61.67;94608.06;5066688;28;20427;-74
2023/12/03 08:13:09;;;;;;;11.55;5.57;;;;;;;11.46;61.45;94626.25;5064930;28;20614;-74
2023/12/03 08:15:35;;;;;;;13.98;6.50;;;;;;;11.39;61.44;94633.56;5065108;28;20038;-74
2023/12/03 08:18:00;;;;;;;8.63;5.75;;;;;;;11.14;61.70;94641.97;5067267;28;20033;-74
2023/12/03 08:20:26;;;;;;;10.63;5.93;;;;;;;11.08;61.76;94641.75;5066656;28;20036;-74
2023/12/03 08:22:51;;;;;;;14.40;6.97;;;;;;;10.97;62.13;94652.38;5064883;28;20037;-74
2023/12/03 08:25:16;;;;;;;10.55;6.35;;;;;;;10.84;62.08;94668.91;5066470;28;20023;-74
2023/12/03 08:27:43;;;;;;;7.43;6.25;;;;;;;10.61;61.71;94661.84;5066167;28;20560;-74
2023/12/03 08:30:08;;;;;;;9.82;6.95;;;;;;;10.52;61.73;94667.22;5068547;28;20016;-74
2023/12/03 08:32:34;;;;;;;10.27;6.82;;;;;;;10.29;61.80;94673.84;5086836;28;20109;-73
2023/12/03 08:34:59;;;;;;;10.45;5.75;;;;;;;10.16;62.11;94667.59;5084600;28;20505;-74
2023/12/03 08:37:24;;;;;;;8.65;6.45;;;;;;;10.03;62.37;94659.31;5084053;28;20032;-74
2023/12/03 08:39:50;;;;;;;10.38;6.80;;;;;;;9.87;62.16;94656.72;5072949;28;20127;-74
2023/12/03 08:42:17;;;;;;;11.52;6.28;;;;;;;9.85;62.68;94659.09;5063227;28;20486;-73
2023/12/03 08:44:42;;;;;;;9.68;6.35;;;;;;;9.73;62.51;94662.63;5064907;28;20120;-74
2023/12/03 08:47:08;;;;;;;11.70;6.72;;;;;;;9.78;62.63;94662.06;5065593;28;20471;-73
2023/12/03 08:49:34;;;;;;;10.18;7.03;;;;;;;9.71;62.17;94671.28;5065710;28;20427;-75
2023/12/03 08:51:59;;;;;;;10.52;6.68;;;;;;;9.48;62.62;94672.34;5067374;28;20158;-77
2023/12/03 08:54:25;;;;;;;10.07;7.28;;;;;;;9.38;63.22;94676.16;5065718;28;20085;-74
2023/12/03 08:56:50;;;;;;;10.57;6.97;;;;;;;9.38;63.28;94662.44;5065165;28;20155;-75
2023/12/03 08:59:16;;;;;;;28.15;19.25;;;;;;;9.36;63.25;94664.88;5064852;28;20029;-76
2023/12/03 09:01:41;;;;;;;12.27;8.43;;;;;;;9.32;63.05;94677.91;5065172;28;20020;-75
2023/12/03 09:04:07;;;;;;;12.57;7.65;;;;;;;9.25;63.30;94676.13;5072375;28;20089;-75
2023/12/03 09:06:32;;;;;;;11.73;7.65;;;;;;;9.22;63.19;94671.50;5085854;28;20020;-75
2023/12/03 09:08:57;;;;;;;9.05;6.65;;;;;;;9.16;62.84;94659.53;5084450;28;20092;-74
2023/12/03 09:11:23;;;;;;;9.45;6.93;;;;;;;8.98;63.34;94668.25;5080182;28;20051;-74
2023/12/03 09:13:49;;;;;;;11.40;7.78;;;;;;;8.91;63.82;94670.41;5064135;28;20051;-76
2023/12/03 09:16:14;;;;;;;11.13;7.57;;;;;;;8.77;64.01;94685.25;5065264;28;20033;-74
2023/12/03 09:18:40;;;;;;;11.98;7.50;;;;;;;8.78;63.93;94684.06;5064222;28;20021;-76
2023/12/03 09:21:08;;;;;;;12.15;8.27;;;;;;;8.65;64.29;94697.69;5066088;28;20028;-75
2023/12/03 09:23:34;;;;;;;9.32;6.90;;;;;;;8.49;64.69;94695.75;5064098;28;20025;-76
2023/12/03 09:26:00;;;;;;;12.05;8.35;;;;;;;8.44;65.31;94692.75;5066095;28;20504;-80
2023/12/03 09:28:25;;;;;;;15.20;8.80;;;;;;;8.48;65.20;94701.63;5068111;28;20028;-78
2023/12/03 09:30:51;;;;;;;11.52;8.18;;;;;;;8.47;64.96;94692.66;5063800;28;20040;-81
2023/12/03 09:33:17;;;;;;;9.38;6.95;;;;;;;8.23;64.81;94702.97;5065937;28;20048;-82
2023/12/03 09:35:42;;;;;;;11.65;7.57;;;;;;;8.31;64.98;94706.31;5047888;28;20036;-81
2023/12/03 09:38:08;;;;;;;11.18;7.72;;;;;;;8.32;64.75;94723.53;5048116;28;20474;-80
2023/12/03 09:40:33;;;;;;;10.73;7.22;;;;;;;8.34;64.89;94721.13;5065339;28;20029;-79
2023/12/03 09:43:03;;;;;;;10.88;8.23;;;;;;;8.36;64.75;94735.19;5050734;28;20028;-80
2023/12/03 09:45:28;;;;;;;12.18;7.65;;;;;;;8.39;64.11;94723.41;5083986;28;20043;-77
2023/12/03 09:47:59;;;;;;;10.15;7.65;;;;;;;8.41;64.25;94719.03;5081166;28;20442;-77
2023/12/03 09:50:25;;;;;;;13.07;8.55;;;;;;;8.38;63.60;94722.63;5072704;28;20020;-75
2023/12/03 09:52:53;;;;;;;13.52;9.68;;;;;;;8.41;63.71;94731.94;5062695;28;20033;-77
2023/12/03 09:55:24;;;;;;;10.82;7.40;;;;;;;8.42;63.71;94747.94;5085999;28;20107;-75
2023/12/03 09:57:53;;;;;;;10.05;7.50;;;;;;;8.38;63.77;94752.75;5067750;28;20028;-75
2023/12/03 10:00:19;;;;;;;12.55;7.97;;;;;;;8.35;63.71;94753.56;5069567;28;20071;-74
2023/12/03 10:02:46;;;;;;;14.23;7.93;;;;;;;8.31;62.99;94743.88;5069234;28;20448;-74
2023/12/03 10:05:11;;;;;;;12.32;8.00;;;;;;;8.27;62.77;94737.75;5067837;28;20056;-73
2023/12/03 10:07:37;;;;;;;12.32;8.38;;;;;;;8.16;62.08;94751.69;5067930;28;20232;-72
2023/12/03 10:10:04;;;;;;;10.40;6.95;;;;;;;8.02;61.99;94768.41;5067507;28;20021;-74
2023/12/03 10:12:35;;;;;;;11.38;6.90;;;;;;;7.79;62.56;94758.31;5067977;28;20020;-74
2023/12/03 10:15:00;;;;;;;12.70;7.78;;;;;;;7.67;62.37;94762.47;5067410;28;20094;-75
2023/12/03 10:17:27;;;;;;;11.80;7.78;;;;;;;7.60;62.18;94768.09;5068363;28;20024;-74
2023/12/03 10:19:53;;;;;;;12.27;7.88;;;;;;;7.49;63.38;94771.03;5068918;28;20048;-74
2023/12/03 10:22:30;;;;;;;13.75;8.27;;;;;;;7.49;63.72;94775.75;5068934;28;20029;-73
2023/12/03 10:24:55;;;;;;;14.27;9.05;;;;;;;7.51;63.02;94774.13;5067884;28;20020;-75
2023/12/03 10:27:20;;;;;;;14.05;9.30;;;;;;;7.54;62.75;94791.66;5067283;28;20023;-75
2023/12/03 10:29:46;;;;;;;14.90;8.55;;;;;;;7.48;62.60;94787.88;5070477;28;20060;-74
2023/12/03 10:32:12;;;;;;;11.95;7.63;;;;;;;7.42;62.42;94795.81;5068734;28;20466;-73
2023/12/03 10:34:43;;;;;;;14.00;8.68;;;;;;;7.41;62.28;94789.56;5071453;28;20062;-74
2023/12/03 10:37:09;;;;;;;13.55;8.40;;;;;;;7.43;61.36;94780.94;5081487;28;20028;-73
2023/12/03 10:39:37;;;;;;;13.52;7.93;;;;;;;7.42;61.52;94773.94;5068501;28;20106;-74
2023/12/03 10:42:02;;;;;;;16.60;7.95;;;;;;;7.32;60.99;94770.19;5084294;28;20032;-77
2023/12/03 10:44:28;;;;;;;13.98;7.47;;;;;;;7.22;61.00;94770.38;5087910;28;20061;-76
2023/12/03 10:46:56;;;;;;;16.75;8.52;;;;;;;7.25;61.12;94780.50;5085692;28;20024;-78
2023/12/03 10:49:23;;;;;;;13.02;7.35;;;;;;;7.18;60.85;94784.91;5075073;28;20035;-78
2023/12/03 10:51:49;;;;;;;11.93;8.30;;;;;;;7.12;61.42;94794.78;5070187;28;20123;-78
2023/12/03 10:54:15;;;;;;;12.50;8.10;;;;;;;7.06;61.23;94782.03;5076697;28;20120;-78
2023/12/03 10:56:41;;;;;;;10.77;6.72;;;;;;;7.09;61.31;94797.56;5067259;28;20028;-75
2023/12/03 10:59:11;;;;;;;12.98;8.93;;;;;;;6.97;62.01;94796.22;5068572;28;20341;-78
2023/12/03 11:01:40;;;;;;;13.82;7.70;;;;;;;6.98;61.64;94795.03;5066553;28;20656;-78
2023/12/03 11:04:28;;;;;;;10.60;6.82;;;;;;;6.96;60.75;94805.59;5074308;28;20028;-75
2023/12/03 11:06:55;;;;;;;13.63;8.13;;;;;;;6.90;61.45;94785.41;5068826;28;20119;-77
2023/12/03 11:09:21;;;;;;;14.90;7.70;;;;;;;6.85;61.39;94797.59;5066279;28;20016;-77
2023/12/03 11:11:47;;;;;;;11.70;7.47;;;;;;;6.72;61.76;94801.34;5077186;28;20029;-76
2023/12/03 11:14:14;;;;;;;11.30;7.85;;;;;;;6.67;61.75;94785.41;5066491;28;20047;-77
2023/12/03 11:17:03;;;;;;;13.45;7.38;;;;;;;6.61;61.80;94787.84;5068003;28;20025;-78
2023/12/03 11:19:30;;;;;;;10.23;7.20;;;;;;;6.62;61.11;94794.84;5078096;28;20365;-78
2023/12/03 11:22:17;;;;;;;10.40;6.80;;;;;;;6.60;61.45;94803.47;5076874;28;20024;-76